createdAt,value
2023-02-11T00:00:25.101Z,12.8
2023-02-11T00:05:25.117Z,14.6
2023-02-11T00:10:25.114Z,17.3
2023-02-11T00:15:25.108Z,17.7
2023-02-11T00:20:25.111Z,17.6
2023-02-11T00:25:25.100Z,16.5
2023-02-11T00:30:25.138Z,13.5
2023-02-11T00:35:25.108Z,12.4
2023-02-11T00:40:25.103Z,12.9
2023-02-11T00:45:25.111Z,12.7
2023-02-11T00:50:25.109Z,11.7
2023-02-11T00:55:25.130Z,13.3
2023-02-11T01:00:25.094Z,13.4
2023-02-11T01:05:25.215Z,12.6
2023-02-11T01:10:25.099Z,12.5
2023-02-11T01:15:25.123Z,13.1
2023-02-11T01:20:25.111Z,14
2023-02-11T01:25:25.135Z,14.9
2023-02-11T01:30:25.099Z,13
2023-02-11T01:35:25.107Z,10.2
2023-02-11T01:40:25.104Z,7.4
2023-02-11T01:45:25.106Z,10.7
2023-02-11T01:50:25.110Z,12.7
2023-02-11T01:55:25.122Z,11.4
2023-02-11T02:00:25.117Z,13
2023-02-11T02:05:25.115Z,11.9
2023-02-11T02:10:25.118Z,0
2023-02-11T02:15:25.122Z,4.4
2023-02-11T02:20:25.092Z,10.4
2023-02-11T02:25:25.115Z,14.1
2023-02-11T02:30:25.122Z,12.1
2023-02-11T02:35:25.097Z,12
2023-02-11T02:40:25.095Z,10
2023-02-11T02:45:25.113Z,8.4
2023-02-11T02:50:25.103Z,7.1
2023-02-11T02:55:25.116Z,10.8
2023-02-11T03:00:25.103Z,10.9
2023-02-11T03:05:25.120Z,10.9
2023-02-11T03:10:25.104Z,12.6
2023-02-11T03:15:25.112Z,12.2
2023-02-11T03:20:25.109Z,12.7
2023-02-11T03:25:25.123Z,12.9
2023-02-11T03:30:25.099Z,12.7
2023-02-11T03:35:25.122Z,12.9
2023-02-11T03:40:25.122Z,10.3
2023-02-11T03:45:25.124Z,14.1
2023-02-11T03:50:25.111Z,15.5
2023-02-11T03:55:25.110Z,15.1
2023-02-11T04:00:25.118Z,17.3
2023-02-11T04:05:25.117Z,13.1
2023-02-11T04:10:25.114Z,13.8
2023-02-11T04:15:25.099Z,17
2023-02-11T04:20:25.100Z,13.8
2023-02-11T04:25:25.105Z,12
2023-02-11T04:30:25.110Z,14.8
2023-02-11T04:35:25.109Z,14.5
2023-02-11T04:40:25.114Z,15.9
2023-02-11T04:45:25.113Z,13.3
2023-02-11T04:50:25.109Z,13.4
2023-02-11T04:55:25.108Z,15.1
2023-02-11T05:00:25.095Z,16.7
2023-02-11T05:05:25.124Z,20
2023-02-11T05:10:25.111Z,17.2
2023-02-11T05:15:25.122Z,17.6
2023-02-11T05:20:25.119Z,22.7
2023-02-11T05:25:25.124Z,22.6
2023-02-11T05:30:25.130Z,23.8
2023-02-11T05:35:25.131Z,19.1
2023-02-11T05:40:25.160Z,22.1
2023-02-11T05:45:25.397Z,22.9
2023-02-11T05:50:25.132Z,20.8
2023-02-11T05:55:25.126Z,22.5
2023-02-11T06:00:25.148Z,19
2023-02-11T06:05:25.153Z,17.7
2023-02-11T06:10:25.129Z,15.3
2023-02-11T06:15:25.142Z,16
2023-02-11T06:20:25.168Z,19.9
2023-02-11T06:25:25.163Z,20.4
2023-02-11T06:30:25.140Z,26.5
2023-02-11T06:35:25.144Z,20.7
2023-02-11T06:40:25.115Z,15.6
2023-02-11T06:45:25.169Z,13
2023-02-11T06:50:25.119Z,16.7
2023-02-11T06:55:25.124Z,20.5
2023-02-11T07:00:25.124Z,17.7
2023-02-11T07:05:25.120Z,19.6
2023-02-11T07:10:25.117Z,19.4
2023-02-11T07:15:25.119Z,20.6
2023-02-11T07:20:25.100Z,20.1
2023-02-11T07:25:25.121Z,18.2
2023-02-11T07:30:25.107Z,17.1
2023-02-11T07:35:25.112Z,15.7
2023-02-11T07:40:25.116Z,19.9
2023-02-11T07:45:25.105Z,20.4
2023-02-11T07:50:25.107Z,12.1
2023-02-11T07:55:25.107Z,18.3
2023-02-11T08:00:25.120Z,13.5
2023-02-11T08:05:25.126Z,16.6
2023-02-11T08:10:25.120Z,12.6
2023-02-11T08:15:25.114Z,9.5
2023-02-11T08:20:25.109Z,10.5
2023-02-11T08:25:25.102Z,13.3
2023-02-11T08:30:26.434Z,14.4
2023-02-11T08:35:25.099Z,15.6
2023-02-11T08:40:25.112Z,20.1
2023-02-11T08:45:25.135Z,18.8
2023-02-11T08:55:25.105Z,15.4
2023-02-11T09:00:25.117Z,15.2
2023-02-11T09:05:25.099Z,15.6
2023-02-11T09:10:25.121Z,18
2023-02-11T09:15:25.114Z,17.2
2023-02-11T09:20:25.109Z,17.5
2023-02-11T09:25:25.114Z,17.6
2023-02-11T09:30:25.116Z,15
2023-02-11T09:35:25.110Z,15.7
2023-02-11T09:40:25.116Z,14.1
2023-02-11T09:45:25.137Z,16.5
2023-02-11T09:50:25.130Z,16.2
2023-02-11T09:55:25.133Z,14.2
2023-02-11T10:00:25.139Z,17.1
2023-02-11T10:05:25.146Z,21.4
2023-02-11T10:10:25.131Z,12.2
2023-02-11T10:15:25.147Z,17.1
2023-02-11T10:20:25.113Z,14.2
2023-02-11T10:25:25.126Z,23.1
2023-02-11T10:30:25.133Z,20.6
2023-02-11T10:35:25.137Z,17
2023-02-11T10:40:25.143Z,16.8
2023-02-11T10:45:25.116Z,23.1
2023-02-11T10:50:25.128Z,16.2
2023-02-11T10:55:25.119Z,20.4
2023-02-11T11:00:25.113Z,17.5
2023-02-11T11:05:25.103Z,15.7
2023-02-11T11:10:25.125Z,14.1
2023-02-11T11:15:25.110Z,21.6
2023-02-11T11:20:25.119Z,24.5
2023-02-11T11:25:25.114Z,18.1
2023-02-11T11:30:25.134Z,18.5
2023-02-11T11:35:25.119Z,18.7
2023-02-11T11:40:25.160Z,18.5
2023-02-11T11:45:25.133Z,22.6
2023-02-11T11:50:25.128Z,15.5
2023-02-11T11:55:25.124Z,22.8
2023-02-11T12:00:25.115Z,16.3
2023-02-11T12:05:25.103Z,19
2023-02-11T12:10:25.130Z,24.8
2023-02-11T12:15:25.120Z,23.3
2023-02-11T12:20:25.115Z,21.2
2023-02-11T12:25:25.138Z,22.3
2023-02-11T12:30:25.125Z,21
2023-02-11T12:35:25.133Z,29.7
2023-02-11T12:40:25.122Z,20.1
2023-02-11T12:45:25.120Z,21.5
2023-02-11T12:50:25.122Z,21.9
2023-02-11T12:55:25.139Z,16.7
2023-02-11T13:00:25.112Z,19.6
2023-02-11T13:05:25.098Z,19.9
2023-02-11T13:10:25.102Z,22.7
2023-02-11T13:15:25.108Z,23.4
2023-02-11T13:20:25.102Z,22.2
2023-02-11T13:25:25.113Z,17.9
2023-02-11T13:30:25.118Z,19.5
2023-02-11T13:35:25.113Z,19
2023-02-11T13:40:25.131Z,21.3
2023-02-11T13:45:25.110Z,22
2023-02-11T13:50:25.115Z,20.5
2023-02-11T13:55:25.104Z,14.6
2023-02-11T14:00:25.103Z,17.1
2023-02-11T14:05:25.110Z,16.8
2023-02-11T14:10:25.105Z,21
2023-02-11T14:15:25.121Z,20.6
2023-02-11T14:20:25.116Z,21.6
2023-02-11T14:25:25.135Z,17.3
2023-02-11T14:30:25.114Z,16.1
2023-02-11T14:35:25.122Z,16.7
2023-02-11T14:40:25.104Z,13.7
2023-02-11T14:45:25.116Z,14.3
2023-02-11T14:50:25.103Z,15
2023-02-11T14:55:25.112Z,15.4
2023-02-11T15:00:25.147Z,14.6
2023-02-11T15:05:25.111Z,16.2
2023-02-11T15:10:25.103Z,17.8
2023-02-11T15:15:25.104Z,17.7
2023-02-11T15:20:25.108Z,18.4
2023-02-11T15:25:25.108Z,16.7
2023-02-11T15:30:25.119Z,16.4
2023-02-11T15:35:25.097Z,15.6
2023-02-11T15:40:25.107Z,11.1
2023-02-11T15:45:25.098Z,13.9
2023-02-11T15:50:25.101Z,19
2023-02-11T15:55:25.112Z,15.2
2023-02-11T16:00:25.136Z,18.1
2023-02-11T16:05:25.114Z,18.1
2023-02-11T16:10:25.129Z,13.4
2023-02-11T16:15:25.144Z,14.8
2023-02-11T16:20:25.108Z,11.1
2023-02-11T16:25:25.138Z,13.3
2023-02-11T16:30:25.169Z,14.3
2023-02-11T16:35:25.105Z,11.8
2023-02-11T16:40:25.117Z,11.7
2023-02-11T16:45:25.104Z,13.6
2023-02-11T16:50:25.129Z,13.9
2023-02-11T16:55:25.239Z,12.4
2023-02-11T17:00:25.113Z,10.7
2023-02-11T17:05:25.117Z,10.4
2023-02-11T17:10:25.104Z,10.6
2023-02-11T17:15:25.100Z,12.8
2023-02-11T17:20:25.102Z,13.6
2023-02-11T17:25:25.100Z,13.5
2023-02-11T17:30:25.098Z,10.6
2023-02-11T17:35:25.098Z,12.3
2023-02-11T17:40:25.099Z,12.3
2023-02-11T17:45:25.160Z,10.3
2023-02-11T17:50:26.612Z,8.7
2023-02-11T17:55:25.116Z,10.1
2023-02-11T18:00:25.110Z,12
2023-02-11T18:05:25.099Z,17.1
2023-02-11T18:10:25.116Z,11.5
2023-02-11T18:15:25.111Z,11.9
2023-02-11T18:20:25.096Z,13.4
2023-02-11T18:25:25.103Z,16.9
2023-02-11T18:30:25.112Z,10.1
2023-02-11T18:35:25.125Z,12.4
2023-02-11T18:40:25.146Z,14.3
2023-02-11T18:45:25.122Z,14.3
2023-02-11T18:50:25.102Z,13.2
2023-02-11T18:55:25.113Z,12.8
2023-02-11T19:00:25.106Z,10.5
2023-02-11T19:05:25.131Z,11.1
2023-02-11T19:10:25.105Z,13.1
2023-02-11T19:15:25.114Z,14.7
2023-02-11T19:20:25.101Z,13.6
2023-02-11T19:25:25.108Z,12
2023-02-11T19:30:25.109Z,10.8
2023-02-11T19:35:25.120Z,11.3
2023-02-11T19:40:25.107Z,11.3
2023-02-11T19:45:25.114Z,9.9
2023-02-11T19:50:25.120Z,8.5
2023-02-11T19:55:25.115Z,11.1
2023-02-11T20:00:25.112Z,9.5
2023-02-11T20:05:25.108Z,7.2
2023-02-11T20:10:25.112Z,8.4
2023-02-11T20:15:25.108Z,8.7
2023-02-11T20:20:25.099Z,12.3
2023-02-11T20:25:25.120Z,7.4
2023-02-11T20:30:25.102Z,13.1
2023-02-11T20:35:25.095Z,11.2
2023-02-11T20:40:25.097Z,11.6
2023-02-11T20:45:25.103Z,12.3
2023-02-11T20:50:25.106Z,10.5
2023-02-11T20:55:25.112Z,16.7
2023-02-11T21:00:25.119Z,8.2
2023-02-11T21:05:25.120Z,11.9
2023-02-11T21:10:25.099Z,12
2023-02-11T21:15:25.139Z,11.4
2023-02-11T21:20:25.115Z,12.7
2023-02-11T21:25:25.114Z,12.3
2023-02-11T21:30:25.109Z,13.6
2023-02-11T21:35:25.114Z,9.6
2023-02-11T21:40:25.109Z,10.7
2023-02-11T21:45:25.121Z,14
2023-02-11T21:50:25.104Z,0
2023-02-11T21:55:25.119Z,7.3
2023-02-11T22:00:25.131Z,7.9
2023-02-11T22:05:25.121Z,7.8
2023-02-11T22:10:25.121Z,9.9
2023-02-11T22:15:25.121Z,11.2
2023-02-11T22:20:25.122Z,8.5
2023-02-11T22:25:25.121Z,8.5
2023-02-11T22:30:25.111Z,7.4
2023-02-11T22:35:25.110Z,6.4
2023-02-11T22:40:25.099Z,8.8
2023-02-11T22:45:25.107Z,0
2023-02-11T22:50:25.111Z,4.4
2023-02-11T22:55:25.110Z,6.7
2023-02-11T23:00:25.111Z,6.4
2023-02-11T23:05:25.109Z,7.2
2023-02-11T23:10:25.112Z,8.1
2023-02-11T23:15:25.103Z,5.8
2023-02-11T23:20:25.105Z,6.9
2023-02-11T23:25:25.110Z,6.9
2023-02-11T23:30:25.098Z,6.9
2023-02-11T23:35:25.111Z,9.3
2023-02-11T23:40:25.104Z,7
2023-02-11T23:45:25.108Z,6
2023-02-11T23:50:25.113Z,8.1
2023-02-11T23:55:25.118Z,0
